Airfield :
LOGIN :

Register | Disclaimer

   EN    FR    IT 

 










Legend :    VFR   Marginal VFR   IFR   Intensive IFR   Very Intensive IFR
Visi :
Ceiling :
>= 8 km
>= 3000ft
5 to 8 km
1000 to 3000 ft
1500m to 5 km
500 to 1000 ft
800 to 1500m
200 to 500 ft
< 800m
< 200 ft
Symbols :   Thunderstorms  Fog  Heavy snow  Heavy precipitations  Wind > 20 kt
SIGMETs :     Misc.  Thunderstorms  Icing  Turbulence  Mountain Waves  Volcanic Ashes






- Airport Elevation : 124 ft
- IATA code : NHT


EGWU - RAF Northolt

CURRENT METAR :
  • 270832Z 02009KT 4000 RASN BKN005 02/01 Q0996 TEMPO 2500 BKN004 RMK YLO1 TEMPO YLO2

EXPIRED METARs :
  • 270820Z 03008KT 6000 RASN SCT005 OVC008 02/01 Q0996 TEMPO 2500 SCT004 BKN006 RMK YLO1 TEMPO YLO2
  • 270750Z 05008KT 9999 7000N RA BKN007 OVC018 03/02 Q0995 TEMPO 3000 RASN BKN005
  • 270720Z 06006KT 9999 RA BKN007 OVC018 03/02 Q0995 TEMPO 4000 RASN BKN005 RMK GRN TEMPO YLO1
  • 270650Z 09007KT 9999 RA BKN007 OVC020 03/02 Q0995 TEMPO 4000 RASN BKN005 RMK GRN TEMPO YLO1
  • 270550Z AUTO 14007KT 4500 // BKN009/// 03/02 Q0996

TAF TAF EGWU
Valid from the 27 at 09:00 until the 28 at 03:00 UTC


270742Z 2709/2803 35007KT 9999 -RA BKN008
TEMPO 2709/2711 5000 RA BKN006
PROB30
TEMPO 2709/2711 2500 RASN SCT004 BKN006
BECMG 2711/2714 33017G27KT NSW FEW025
BECMG 2715/2718 31010KT



MET'MAP, your aeronautical weather chart ! - Copyright ORBIFLY December 2007 - Disclaimer

ORBIFLY MET'MAP TEAM :

Programming & Development : Alexandra Zaïnal
Concept & original design : Baudouin d'Aumeries
Assistance for programming : Marc-Olivier Méhu
Technical & hardware support : Manuel Goepfert

Contact : metmap@orbifly.com




SOURCES & CREDITS :

   NOAA